Time;durP1;ratioP1;P1;durP2;ratioP2;P2;SDS_P1;SDS_P2;PMS_P1;PMS_P2;Temp;Humidity;BMP_temperature;BMP_pressure;BME280_temperature;BME280_humidity;BME280_pressure;Samples;Min_cycle;Max_cycle;Signal;HPM_P1;HPM_P2
2021/03/30 00:01:41;;;;;;;36.90;18.10;;;;;;;8.19;69.69;98695.25;4998320;28;20098;-83
2021/03/30 00:04:07;;;;;;;31.30;17.00;;;;;;;7.99;70.84;98681.75;4998537;28;20029;-83
2021/03/30 00:06:32;;;;;;;31.00;16.38;;;;;;;7.92;72.06;98678.41;4998315;28;20053;-83
2021/03/30 00:08:58;;;;;;;40.47;15.77;;;;;;;7.88;72.58;98681.22;4998550;28;20025;-83
2021/03/30 00:11:24;;;;;;;36.47;17.83;;;;;;;7.82;73.17;98670.75;4998496;28;20029;-83
2021/03/30 00:13:49;;;;;;;32.08;16.77;;;;;;;7.72;73.40;98682.66;4998207;28;20059;-83
2021/03/30 00:16:15;;;;;;;25.35;14.40;;;;;;;7.63;73.34;98670.47;4998289;28;20037;-83
2021/03/30 00:18:41;;;;;;;29.00;14.75;;;;;;;7.52;74.15;98665.53;4998382;28;20084;-83
2021/03/30 00:21:06;;;;;;;32.92;14.88;;;;;;;7.46;74.18;98667.50;4998295;28;20048;-83
2021/03/30 00:23:32;;;;;;;29.52;15.70;;;;;;;7.35;74.65;98661.66;4998738;28;20061;-83
2021/03/30 00:25:58;;;;;;;34.35;16.42;;;;;;;7.27;75.72;98671.66;4990108;28;20032;-84
2021/03/30 00:28:23;;;;;;;30.25;15.52;;;;;;;7.19;75.88;98671.03;4998474;28;20029;-84
2021/03/30 00:30:49;;;;;;;31.70;14.48;;;;;;;6.97;76.82;98663.69;4997981;28;20017;-84
2021/03/30 00:33:14;;;;;;;27.67;14.23;;;;;;;6.97;77.11;98669.00;5014605;28;20030;-83
2021/03/30 00:35:40;;;;;;;27.60;15.02;;;;;;;6.91;78.52;98665.66;4997966;28;20108;-84
2021/03/30 00:38:09;;;;;;;30.75;14.32;;;;;;;6.77;78.70;98652.75;4998089;28;20063;-84
2021/03/30 00:40:35;;;;;;;27.23;12.07;;;;;;;6.75;79.23;98659.91;4999275;28;20041;-84
2021/03/30 00:43:00;;;;;;;21.27;12.05;;;;;;;6.68;78.94;98658.34;4987157;28;20486;-84
2021/03/30 00:45:26;;;;;;;27.63;12.52;;;;;;;6.64;79.23;98662.03;5014276;28;20044;-83
2021/03/30 00:47:52;;;;;;;35.35;14.75;;;;;;;6.51;79.92;98644.66;4998352;28;20030;-84
2021/03/30 00:50:22;;;;;;;27.73;13.65;;;;;;;6.48;80.09;98660.69;5014339;28;20436;-84
2021/03/30 00:52:48;;;;;;;17.33;10.27;;;;;;;6.31;81.47;98644.31;4997897;28;20040;-83
2021/03/30 00:55:14;;;;;;;17.92;8.52;;;;;;;6.30;82.21;98647.91;4998117;28;20513;-83
2021/03/30 00:57:40;;;;;;;19.65;9.32;;;;;;;6.21;82.57;98640.19;4997908;28;20029;-85
2021/03/30 01:00:08;;;;;;;20.40;8.60;;;;;;;6.12;82.89;98649.25;5014300;28;20417;-83
2021/03/30 01:02:35;;;;;;;15.57;8.40;;;;;;;6.09;83.36;98645.84;4998250;28;20033;-83
2021/03/30 01:05:01;;;;;;;17.65;9.50;;;;;;;5.99;84.10;98646.09;4997964;28;20033;-83
2021/03/30 01:07:27;;;;;;;20.60;9.35;;;;;;;5.97;84.02;98642.56;5014406;28;20034;-82
2021/03/30 01:10:19;;;;;;;21.50;9.63;;;;;;;5.89;83.71;98638.38;4998148;28;20029;-83
2021/03/30 01:12:53;;;;;;;22.58;10.05;;;;;;;5.93;83.25;98646.25;5005287;28;20056;-82
2021/03/30 01:15:35;;;;;;;26.15;10.63;;;;;;;5.89;83.50;98644.56;4997661;28;20033;-83
2021/03/30 01:18:40;;;;;;;20.63;10.48;;;;;;;5.80;84.20;98644.78;4997369;28;20488;-84
2021/03/30 01:21:14;;;;;;;20.42;10.02;;;;;;;5.76;84.37;98653.72;5027460;28;20037;-84
2021/03/30 01:23:47;;;;;;;22.85;11.23;;;;;;;5.64;84.26;98647.84;5013740;28;20040;-84
2021/03/30 01:26:17;;;;;;;22.58;11.13;;;;;;;5.59;84.87;98655.94;4978128;28;20030;-84
2021/03/30 01:29:02;;;;;;;26.05;12.07;;;;;;;5.56;84.77;98647.16;4994310;28;20051;-83
2021/03/30 01:31:29;;;;;;;28.25;12.65;;;;;;;5.46;85.36;98638.56;5031585;28;20024;-83
2021/03/30 01:33:57;;;;;;;26.75;12.02;;;;;;;5.46;85.75;98639.44;5013687;28;20464;-84
2021/03/30 01:36:23;;;;;;;31.67;15.27;;;;;;;5.29;85.49;98641.59;4997505;28;20563;-83
2021/03/30 01:38:49;;;;;;;24.42;13.43;;;;;;;5.32;85.21;98644.16;4997444;28;20033;-83
2021/03/30 01:41:14;;;;;;;28.67;13.73;;;;;;;5.30;85.51;98637.16;4997731;28;20091;-84
2021/03/30 01:43:45;;;;;;;24.27;11.95;;;;;;;5.30;84.96;98642.47;5013994;28;20103;-83
2021/03/30 01:46:12;;;;;;;21.42;9.70;;;;;;;5.23;84.34;98632.94;4981196;28;20036;-84
2021/03/30 01:48:37;;;;;;;22.13;10.02;;;;;;;5.21;84.27;98640.03;4997840;28;20421;-84
2021/03/30 01:51:06;;;;;;;22.40;10.00;;;;;;;5.20;85.11;98638.31;4998766;28;20029;-84
2021/03/30 01:53:35;;;;;;;31.63;11.73;;;;;;;5.13;85.05;98642.88;5010535;28;20420;-84
2021/03/30 01:56:02;;;;;;;20.65;8.93;;;;;;;5.07;85.46;98650.97;5000918;28;20401;-83
2021/03/30 01:58:29;;;;;;;19.90;9.02;;;;;;;5.01;85.03;98640.50;5001629;28;20404;-83
2021/03/30 02:00:55;;;;;;;22.08;9.73;;;;;;;4.98;86.34;98647.66;5000858;28;20044;-83
2021/03/30 02:03:21;;;;;;;19.02;8.85;;;;;;;4.89;86.75;98641.63;5017527;28;20025;-84
2021/03/30 02:05:48;;;;;;;21.17;9.10;;;;;;;4.86;87.74;98644.34;5001695;28;20590;-83
2021/03/30 02:08:14;;;;;;;18.08;8.38;;;;;;;4.74;87.97;98636.66;4993322;28;20040;-84
2021/03/30 02:10:51;;;;;;;19.27;9.13;;;;;;;4.79;88.67;98655.13;5018018;28;20026;-86
2021/03/30 02:13:25;;;;;;;20.08;9.32;;;;;;;4.68;90.12;98651.81;5001993;28;20087;-82
2021/03/30 02:16:12;;;;;;;14.23;8.23;;;;;;;4.54;90.90;98657.41;5001565;28;20025;-83
2021/03/30 02:19:11;;;;;;;17.17;8.60;;;;;;;4.56;90.48;98652.94;5004421;28;20045;-83
2021/03/30 02:21:45;;;;;;;16.45;8.10;;;;;;;4.50;90.33;98657.47;4994319;28;20076;-84
2021/03/30 02:24:12;;;;;;;20.23;8.75;;;;;;;4.43;91.07;98654.09;5017062;28;20519;-84
2021/03/30 02:26:43;;;;;;;19.95;9.35;;;;;;;4.39;91.41;98660.38;5002070;28;20036;-84
2021/03/30 02:29:10;;;;;;;15.35;8.20;;;;;;;4.34;90.60;98667.50;5018745;28;20171;-84
2021/03/30 02:31:38;;;;;;;19.15;8.38;;;;;;;4.31;90.18;98664.91;5002530;28;20025;-84
2021/03/30 02:34:06;;;;;;;17.27;8.65;;;;;;;4.33;90.44;98666.66;5001854;28;20034;-84
2021/03/30 02:36:32;;;;;;;16.95;9.52;;;;;;;4.36;89.81;98663.06;4998737;28;20034;-84
2021/03/30 02:39:08;;;;;;;26.85;12.80;;;;;;;4.23;89.73;98658.91;4999933;28;20159;-84
2021/03/30 02:41:36;;;;;;;38.40;13.25;;;;;;;4.27;89.66;98677.38;4999983;28;20124;-84
2021/03/30 02:44:04;;;;;;;29.05;13.25;;;;;;;4.12;89.88;98660.91;4999908;28;20116;-83
2021/03/30 02:46:32;;;;;;;30.52;13.07;;;;;;;4.21;90.24;98673.97;5000279;28;20049;-82
2021/03/30 02:48:59;;;;;;;25.08;12.68;;;;;;;4.27;90.39;98684.44;5000012;28;20025;-84
2021/03/30 02:51:25;;;;;;;29.17;12.98;;;;;;;4.20;90.58;98688.09;4999752;28;20021;-83
2021/03/30 02:53:56;;;;;;;31.60;14.68;;;;;;;4.14;90.45;98672.31;4999996;28;20029;-84
2021/03/30 02:56:22;;;;;;;34.15;14.10;;;;;;;4.17;91.13;98689.03;5016540;28;20033;-84
2021/03/30 02:58:54;;;;;;;29.25;13.23;;;;;;;4.05;91.28;98680.44;4999967;28;20029;-83
2021/03/30 03:01:22;;;;;;;20.40;11.52;;;;;;;4.00;90.82;98677.00;4999592;28;20033;-83
2021/03/30 03:03:50;;;;;;;27.55;11.90;;;;;;;3.95;90.15;98676.19;4998860;28;20112;-84
2021/03/30 03:06:16;;;;;;;27.23;11.85;;;;;;;3.97;89.85;98695.59;4999755;28;20489;-84
2021/03/30 03:08:42;;;;;;;24.98;12.45;;;;;;;4.00;90.56;98688.44;5000554;28;20040;-84
2021/03/30 03:11:07;;;;;;;34.78;12.35;;;;;;;3.91;91.11;98693.88;4999647;28;20029;-83
2021/03/30 03:13:34;;;;;;;30.90;14.18;;;;;;;3.90;90.88;98691.28;5015990;28;20021;-82
2021/03/30 03:15:59;;;;;;;34.53;15.75;;;;;;;3.89;90.68;98694.81;4999195;28;20017;-82
2021/03/30 03:18:25;;;;;;;37.25;18.25;;;;;;;3.91;90.53;98691.25;4999669;28;20036;-82
2021/03/30 03:20:51;;;;;;;37.53;18.85;;;;;;;3.89;90.30;98698.34;4999692;28;20033;-83
2021/03/30 03:23:17;;;;;;;35.35;17.92;;;;;;;3.86;89.99;98694.88;4999463;28;20033;-83
2021/03/30 03:25:46;;;;;;;32.88;14.20;;;;;;;3.85;89.36;98699.28;4999516;28;20509;-83
2021/03/30 03:28:12;;;;;;;28.75;13.40;;;;;;;3.86;89.67;98695.75;4999053;28;20537;-83
2021/03/30 03:30:42;;;;;;;33.65;13.63;;;;;;;3.90;89.63;98707.16;4999643;28;20091;-83
2021/03/30 03:33:12;;;;;;;40.15;13.70;;;;;;;3.81;89.92;98703.75;4999160;28;20029;-83
2021/03/30 03:35:38;;;;;;;23.05;11.98;;;;;;;3.66;91.18;98704.00;4999493;28;20504;-83
2021/03/30 03:38:05;;;;;;;26.45;10.70;;;;;;;3.53;93.76;98693.66;4999213;28;20037;-83
2021/03/30 03:40:32;;;;;;;19.67;10.45;;;;;;;3.49;94.11;98716.63;4999533;28;20410;-84
2021/03/30 03:42:58;;;;;;;24.42;9.65;;;;;;;3.31;94.78;98695.75;5015719;28;20029;-83
2021/03/30 03:45:23;;;;;;;23.80;9.60;;;;;;;3.23;95.38;98703.78;4999114;28;20033;-83
2021/03/30 03:47:49;;;;;;;31.83;11.45;;;;;;;3.13;95.85;98690.75;4996177;28;20032;-82
2021/03/30 03:50:15;;;;;;;26.40;10.90;;;;;;;3.16;96.74;98709.19;4998650;28;20417;-84
2021/03/30 03:52:44;;;;;;;24.30;11.23;;;;;;;3.01;97.26;98685.63;4999323;28;20124;-84
2021/03/30 03:55:10;;;;;;;33.63;11.35;;;;;;;3.12;97.17;98710.13;4998695;28;20037;-83
2021/03/30 03:57:50;;;;;;;32.83;12.73;;;;;;;3.14;97.14;98717.13;4998946;28;20033;-83
2021/03/30 04:00:17;;;;;;;27.60;13.48;;;;;;;3.08;97.81;98714.56;4998580;28;20045;-83
2021/03/30 04:02:52;;;;;;;23.45;12.23;;;;;;;3.11;97.42;98724.22;4998740;28;20037;-84
2021/03/30 04:05:23;;;;;;;37.58;11.15;;;;;;;3.09;96.77;98728.66;4998653;28;20033;-83
2021/03/30 04:07:52;;;;;;;25.70;11.35;;;;;;;3.05;96.72;98725.19;4998804;28;20033;-83
2021/03/30 04:10:21;;;;;;;23.33;11.05;;;;;;;3.04;96.48;98715.53;4998622;28;20379;-84
2021/03/30 04:12:47;;;;;;;27.17;11.70;;;;;;;2.99;96.32;98713.81;4997886;28;20083;-87
2021/03/30 04:15:14;;;;;;;34.75;12.75;;;;;;;3.00;97.00;98728.78;5000697;28;20041;-84
2021/03/30 04:17:40;;;;;;;32.28;13.07;;;;;;;3.00;96.92;98734.06;4998066;28;20029;-85
2021/03/30 04:20:09;;;;;;;37.17;15.40;;;;;;;3.01;97.57;98712.06;4997010;28;20485;-85
2021/03/30 04:22:35;;;;;;;33.05;13.60;;;;;;;3.03;96.60;98732.28;4998652;28;20032;-85
2021/03/30 04:25:01;;;;;;;33.72;14.10;;;;;;;3.12;96.17;98732.16;4997250;28;20029;-85
2021/03/30 04:27:26;;;;;;;33.17;14.73;;;;;;;3.07;96.70;98738.41;4997191;28;20068;-85
2021/03/30 04:29:52;;;;;;;28.52;13.30;;;;;;;3.03;96.93;98713.78;4997797;28;20025;-86
2021/03/30 04:32:17;;;;;;;30.17;14.05;;;;;;;3.05;95.99;98719.03;4997770;28;20018;-85
2021/03/30 04:34:43;;;;;;;32.60;13.63;;;;;;;3.15;95.07;98726.81;4997848;28;20114;-85
2021/03/30 04:37:08;;;;;;;37.58;15.98;;;;;;;3.20;95.31;98730.25;4997635;28;20025;-85
2021/03/30 04:39:34;;;;;;;39.03;20.15;;;;;;;3.20;94.78;98713.53;4996975;28;20025;-86
2021/03/30 04:41:59;;;;;;;46.70;22.02;;;;;;;3.39;94.84;98736.16;4998000;28;20083;-85
2021/03/30 04:44:25;;;;;;;39.38;18.15;;;;;;;3.44;94.17;98739.63;4997638;28;20021;-85
2021/03/30 04:46:51;;;;;;;37.13;20.33;;;;;;;3.56;93.52;98738.56;4998073;28;20025;-78
2021/03/30 04:49:16;;;;;;;37.08;19.80;;;;;;;3.64;93.69;98726.97;5013245;28;20417;-86
2021/03/30 04:51:42;;;;;;;48.67;19.00;;;;;;;4.11;92.33;98735.91;4998406;28;20116;-86
2021/03/30 04:54:07;;;;;;;69.90;20.23;;;;;;;5.19;85.70;98729.38;5014253;28;20026;-84
2021/03/30 04:56:36;;;;;;;47.80;18.73;;;;;;;5.95;80.11;98733.81;4997634;28;20032;-87
2021/03/30 04:59:02;;;;;;;48.75;18.65;;;;;;;6.32;77.36;98745.28;4996238;28;20021;-84
2021/03/30 05:01:27;;;;;;;55.40;18.48;;;;;;;6.33;76.41;98735.50;4996905;28;20037;-77
2021/03/30 05:03:53;;;;;;;59.47;19.67;;;;;;;6.47;75.53;98739.56;5013233;28;20025;-77
2021/03/30 05:06:18;;;;;;;54.45;20.77;;;;;;;6.96;73.64;98746.19;5013711;28;20104;-77
2021/03/30 05:08:44;;;;;;;58.13;18.73;;;;;;;7.33;71.52;98753.97;4996798;28;20021;-77
2021/03/30 05:11:10;;;;;;;53.10;16.40;;;;;;;7.28;71.78;98754.13;5030918;28;20088;-76
2021/03/30 05:13:35;;;;;;;42.80;15.60;;;;;;;7.30;70.95;98765.56;4996581;28;20029;-77
2021/03/30 05:16:01;;;;;;;45.10;16.52;;;;;;;7.49;70.29;98749.94;5013398;28;20022;-77
2021/03/30 05:18:26;;;;;;;60.65;15.15;;;;;;;7.90;68.47;98754.84;5013149;28;20037;-77
2021/03/30 05:20:52;;;;;;;38.13;15.05;;;;;;;7.89;68.05;98742.44;4996948;28;20505;-77
2021/03/30 05:23:17;;;;;;;55.15;16.85;;;;;;;8.01;67.18;98743.84;5013117;28;20025;-77
2021/03/30 05:25:43;;;;;;;41.00;16.83;;;;;;;8.78;65.54;98743.88;4997450;28;20492;-78
2021/03/30 05:28:08;;;;;;;37.92;15.68;;;;;;;9.62;61.57;98765.66;5000860;28;20052;-78
2021/03/30 05:30:39;;;;;;;64.93;19.75;;;;;;;10.92;56.76;98762.06;5000530;28;20037;-78
2021/03/30 05:33:05;;;;;;;69.57;17.15;;;;;;;12.58;51.12;98766.69;5000668;28;20092;-79
2021/03/30 05:35:31;;;;;;;52.53;16.92;;;;;;;13.89;46.89;98773.09;5000546;28;20033;-79
2021/03/30 05:37:56;;;;;;;37.15;13.05;;;;;;;14.75;44.03;98783.38;5000717;28;20159;-79
2021/03/30 05:40:22;;;;;;;46.33;15.18;;;;;;;14.96;43.21;98776.72;5000582;28;20053;-78
2021/03/30 05:42:48;;;;;;;42.88;13.57;;;;;;;15.55;41.50;98788.41;5000222;28;20105;-79
2021/03/30 05:45:16;;;;;;;23.42;12.18;;;;;;;16.18;40.34;98780.78;5016959;28;20029;-79
2021/03/30 05:47:42;;;;;;;17.63;10.10;;;;;;;16.43;38.83;98772.78;5000400;28;20027;-79
2021/03/30 05:50:20;;;;;;;27.60;11.27;;;;;;;16.73;37.88;98759.97;5000578;28;20104;-79
2021/03/30 05:52:54;;;;;;;31.08;18.33;;;;;;;17.22;36.62;98767.44;5000430;28;20084;-78
2021/03/30 05:55:30;;;;;;;31.20;12.30;;;;;;;17.76;35.69;98793.34;5001071;28;20029;-78
2021/03/30 05:57:57;;;;;;;25.13;12.32;;;;;;;17.29;36.20;98790.38;5000367;28;20112;-78
2021/03/30 06:00:33;;;;;;;31.83;15.48;;;;;;;17.13;36.54;98771.66;5000307;28;20052;-78
2021/03/30 06:03:20;;;;;;;32.78;10.98;;;;;;;17.42;35.79;98791.25;5016450;28;20053;-79
2021/03/30 06:05:51;;;;;;;16.40;8.68;;;;;;;18.07;34.38;98794.72;4999978;28;20183;-79
2021/03/30 06:08:20;;;;;;;24.38;12.77;;;;;;;18.60;33.82;98796.25;5018164;28;20405;-85
2021/03/30 06:10:58;;;;;;;27.80;11.10;;;;;;;18.99;33.48;98799.63;5001044;28;20056;-84
2021/03/30 06:13:49;;;;;;;29.42;11.18;;;;;;;19.76;32.42;98808.06;5007954;28;20025;-84
2021/03/30 06:16:25;;;;;;;30.98;11.48;;;;;;;18.41;33.30;98788.59;5004243;28;20035;-84
2021/03/30 06:19:13;;;;;;;22.63;10.88;;;;;;;18.16;34.04;98791.34;5021548;28;20033;-85
2021/03/30 06:21:58;;;;;;;19.73;10.05;;;;;;;18.69;33.99;98808.25;5004717;28;20029;-84
2021/03/30 06:24:29;;;;;;;29.77;10.70;;;;;;;19.19;32.91;98801.72;5022631;28;20404;-85
2021/03/30 06:27:04;;;;;;;22.30;9.80;;;;;;;19.46;32.61;98815.91;5022782;28;20033;-84
2021/03/30 06:29:39;;;;;;;27.75;10.98;;;;;;;20.07;31.11;98806.47;5023090;28;20036;-85
2021/03/30 06:32:20;;;;;;;;;;;;;;;;;;;;;
2021/03/30 06:34:51;;;;;;;36.15;13.90;;;;;;;20.64;30.66;98767.41;5024427;28;20484;-85
2021/03/30 06:37:26;;;;;;;90.43;50.40;;;;;;;22.09;28.89;98804.66;5020419;28;20052;-85
2021/03/30 06:39:58;;;;;;;45.47;25.17;;;;;;;20.33;29.49;98731.03;5023913;28;20028;-84
2021/03/30 06:42:40;;;;;;;68.63;26.83;;;;;;;21.67;29.22;98766.69;5005467;28;20075;-83
2021/03/30 06:45:18;;;;;;;37.47;20.23;;;;;;;20.80;29.44;98800.47;5002000;28;20067;-84
2021/03/30 06:47:45;;;;;;;31.20;19.35;;;;;;;21.37;28.81;98797.44;5016948;28;20033;-85
2021/03/30 06:50:25;;;;;;;43.15;20.80;;;;;;;21.72;27.43;98784.34;5006118;28;20492;-85
2021/03/30 06:52:50;;;;;;;33.42;18.55;;;;;;;22.20;28.03;98797.41;5024737;28;20017;-84
2021/03/30 06:55:30;;;;;;;31.73;19.60;;;;;;;22.11;26.91;98797.22;5003144;28;20117;-85
2021/03/30 06:58:01;;;;;;;28.13;16.83;;;;;;;22.88;26.35;98800.22;4997984;28;20401;-86
2021/03/30 07:00:33;;;;;;;22.98;14.00;;;;;;;21.46;27.34;98799.38;5005945;28;20057;-84
2021/03/30 07:03:01;;;;;;;27.13;13.70;;;;;;;21.85;28.14;98806.78;4998111;28;20092;-85
2021/03/30 07:05:38;;;;;;;20.63;11.48;;;;;;;22.49;27.89;98809.25;5022178;28;20029;-81
2021/03/30 07:08:19;;;;;;;;;;;;;;;;;;;;;
2021/03/30 07:14:57;;;;;;;16.00;7.95;;;;;;;21.86;28.20;98818.56;5039501;28;20032;-86
2021/03/30 07:17:57;;;;;;;20.15;8.50;;;;;;;21.58;29.20;98765.63;4995394;28;20037;-82
2021/03/30 07:20:29;;;;;;;23.30;8.68;;;;;;;22.86;27.70;98813.13;4994093;28;20025;-85
2021/03/30 07:23:07;;;;;;;17.73;7.20;;;;;;;22.29;27.55;98772.03;5000826;28;20552;-84
2021/03/30 07:26:03;;;;;;;15.80;7.20;;;;;;;22.38;27.17;98749.38;5001996;28;20425;-85
2021/03/30 07:28:32;;;;;;;16.35;8.18;;;;;;;24.25;25.77;98815.38;5011617;28;20489;-86
2021/03/30 07:31:05;;;;;;;11.02;7.50;;;;;;;24.12;25.11;98782.88;5016884;28;20029;-85
2021/03/30 07:33:44;;;;;;;10.52;7.00;;;;;;;24.19;25.57;98813.25;5000413;28;20025;-84
2021/03/30 07:36:11;;;;;;;15.65;8.60;;;;;;;24.23;25.40;98774.50;4984643;28;20037;-85
2021/03/30 07:38:45;;;;;;;19.75;7.45;;;;;;;22.96;26.44;98808.56;4999561;28;20048;-84
2021/03/30 07:45:18;;;;;;;;;;;;;;;;;;;;;
2021/03/30 07:52:40;;;;;;;;;;;;;;;;;;;;;
2021/03/30 07:58:40;;;;;;;19.35;8.40;;;;;;;25.08;23.39;98768.69;4809565;29;20050;-84
2021/03/30 08:01:36;;;;;;;15.35;7.60;;;;;;;24.72;23.50;98745.88;4834628;29;20073;-84
2021/03/30 08:04:07;;;;;;;10.70;6.22;;;;;;;24.52;23.42;98776.22;4861706;29;20465;-84
2021/03/30 08:10:32;;;;;;;19.92;6.72;;;;;;;25.18;22.73;98796.00;4886629;29;20043;-83
2021/03/30 08:13:34;;;;;;;9.88;5.50;;;;;;;24.44;23.57;98789.81;4861562;29;20041;-83
2021/03/30 08:16:16;;;;;;;32.45;6.13;;;;;;;24.75;23.28;98772.06;4926993;29;20106;-84
2021/03/30 08:18:43;;;;;;;12.50;6.03;;;;;;;25.85;22.20;98729.59;4965427;28;20080;-83
2021/03/30 08:21:23;;;;;;;10.27;5.80;;;;;;;25.07;22.56;98746.94;4999353;28;20026;-83
2021/03/30 08:23:52;;;;;;;11.73;6.50;;;;;;;26.21;21.79;98775.09;5020652;28;20566;-83
2021/03/30 08:26:44;;;;;;;;;;;;;;;;;;;;;
2021/03/30 08:33:07;;;;;;;;;;;;;;;;;;;;;
2021/03/30 08:35:55;;;;;;;;;;;;;;;;;;;;;
2021/03/30 08:39:03;;;;;;;8.85;5.13;;;;;;;22.78;24.71;98774.78;4940646;29;20039;-83
2021/03/30 08:41:47;;;;;;;16.55;5.68;;;;;;;24.44;23.64;98789.81;4963363;28;20031;-83
2021/03/30 08:44:32;;;;;;;9.18;5.28;;;;;;;24.18;23.49;98710.31;4955131;28;20408;-83
2021/03/30 08:47:01;;;;;;;11.20;5.70;;;;;;;25.51;22.36;98720.44;4993596;28;20445;-83
2021/03/30 08:49:34;;;;;;;10.60;5.30;;;;;;;25.34;22.41;98755.06;4998729;28;20159;-83
2021/03/30 08:52:07;;;;;;;13.20;5.63;;;;;;;26.29;20.76;98777.03;5015004;28;20033;-83
2021/03/30 08:54:43;;;;;;;13.15;5.65;;;;;;;26.47;20.56;98747.59;4998605;28;20406;-84
2021/03/30 08:57:35;;;;;;;;;;;;;;;;;;;;;
2021/03/30 09:03:37;;;;;;;8.27;4.97;;;;;;;26.21;21.41;98725.69;4932660;29;20042;-82
2021/03/30 09:06:33;;;;;;;7.78;5.28;;;;;;;25.14;21.37;98701.44;5025546;28;20034;-83
2021/03/30 09:09:04;;;;;;;16.42;4.97;;;;;;;24.99;21.90;98755.06;4988594;28;20030;-82
2021/03/30 09:11:39;;;;;;;8.80;5.10;;;;;;;25.30;21.45;98735.34;5002535;28;20125;-83
2021/03/30 09:14:09;;;;;;;9.57;5.18;;;;;;;25.04;21.39;98728.91;5004116;28;20029;-84
2021/03/30 09:16:36;;;;;;;10.48;5.45;;;;;;;25.69;20.77;98694.72;5001866;28;20544;-82
2021/03/30 09:19:12;;;;;;;8.40;4.72;;;;;;;25.67;20.51;98728.78;5001345;28;20029;-82
2021/03/30 09:21:41;;;;;;;16.27;4.82;;;;;;;26.42;20.74;98716.19;5018047;28;20382;-83
2021/03/30 09:24:19;;;;;;;9.90;4.93;;;;;;;26.30;19.88;98696.44;5001813;28;20505;-83
2021/03/30 09:26:51;;;;;;;11.32;4.72;;;;;;;25.00;20.75;98694.69;5005597;28;20029;-84
2021/03/30 09:29:21;;;;;;;17.48;5.90;;;;;;;25.83;21.20;98737.13;5018322;28;20040;-84
2021/03/30 09:31:47;;;;;;;10.55;4.82;;;;;;;25.69;19.76;98724.00;4998854;28;20040;-84
2021/03/30 09:34:13;;;;;;;9.10;5.72;;;;;;;24.30;22.04;98717.34;5013933;28;20489;-84
2021/03/30 09:36:47;;;;;;;15.27;7.25;;;;;;;24.62;22.07;98734.09;4997405;28;20036;-83
2021/03/30 09:39:22;;;;;;;13.02;6.90;;;;;;;25.71;21.75;98732.94;4997717;28;20127;-83
2021/03/30 09:41:49;;;;;;;11.30;5.97;;;;;;;26.61;20.71;98721.41;4997218;28;20029;-84
2021/03/30 09:44:16;;;;;;;20.08;10.75;;;;;;;27.56;19.12;98716.25;4997199;28;20030;-83
2021/03/30 09:46:44;;;;;;;13.25;5.20;;;;;;;26.25;19.50;98688.69;5013546;28;20053;-82
2021/03/30 09:49:12;;;;;;;7.82;4.72;;;;;;;25.06;20.82;98705.00;5013928;28;20028;-83
2021/03/30 09:51:39;;;;;;;10.27;4.60;;;;;;;24.15;21.67;98689.59;5013415;28;20033;-84
2021/03/30 09:54:25;;;;;;;7.32;4.40;;;;;;;23.85;22.48;98710.88;4997282;28;20533;-83
2021/03/30 09:56:57;;;;;;;9.20;4.68;;;;;;;25.12;22.23;98709.84;5013617;28;20497;-82
2021/03/30 09:59:22;;;;;;;11.73;5.43;;;;;;;25.49;21.48;98706.06;5013110;28;20034;-82
2021/03/30 10:01:48;;;;;;;9.55;4.78;;;;;;;26.43;19.17;98696.81;4997005;28;20029;-82
2021/03/30 10:04:16;;;;;;;7.80;4.80;;;;;;;26.34;19.61;98692.31;4997190;28;20029;-82
2021/03/30 10:06:42;;;;;;;16.08;9.75;;;;;;;26.59;20.39;98696.88;4996909;28;20025;-83
2021/03/30 10:09:08;;;;;;;13.43;6.10;;;;;;;28.01;18.34;98682.63;4997043;28;20060;-83
2021/03/30 10:11:34;;;;;;;18.38;6.18;;;;;;;27.74;19.73;98694.06;4997297;28;20037;-82
2021/03/30 10:14:20;;;;;;;9.15;4.63;;;;;;;28.22;17.59;98676.53;5000486;28;20032;-82
2021/03/30 10:16:46;;;;;;;6.80;4.03;;;;;;;27.87;17.84;98677.88;5000491;28;20106;-82
2021/03/30 10:19:13;;;;;;;8.82;4.82;;;;;;;28.36;16.73;98653.78;5000349;28;20060;-83
2021/03/30 10:21:39;;;;;;;5.13;3.90;;;;;;;27.92;16.65;98657.03;5000226;28;20486;-83
2021/03/30 10:24:15;;;;;;;8.25;4.75;;;;;;;26.60;17.40;98653.78;5000399;28;20034;-83
2021/03/30 10:26:41;;;;;;;6.50;4.18;;;;;;;26.19;18.10;98653.69;5000564;28;20505;-83
2021/03/30 10:29:14;;;;;;;6.25;3.85;;;;;;;26.73;17.80;98659.66;5000479;28;20068;-83
2021/03/30 10:34:27;;;;;;;7.35;3.85;;;;;;;26.75;17.83;98652.09;5013255;28;20033;-82
2021/03/30 10:36:54;;;;;;;4.75;3.80;;;;;;;25.42;18.98;98614.50;5001100;28;20095;-82
2021/03/30 10:39:36;;;;;;;76.90;8.82;;;;;;;26.89;18.51;98645.97;5001163;28;20033;-81
2021/03/30 10:42:05;;;;;;;9.02;4.32;;;;;;;28.62;16.78;98636.91;5017047;28;20035;-83
2021/03/30 10:44:42;;;;;;;5.00;3.72;;;;;;;28.51;15.99;98625.31;5017337;28;20076;-82
2021/03/30 10:47:29;;;;;;;5.18;3.67;;;;;;;28.98;16.39;98629.78;5001297;28;20129;-82
2021/03/30 10:49:55;;;;;;;12.40;4.30;;;;;;;29.83;16.01;98617.47;5000742;28;20037;-83
2021/03/30 10:52:25;;;;;;;8.32;5.18;;;;;;;28.58;15.84;98621.81;5000876;28;20531;-82
2021/03/30 10:54:52;;;;;;;8.77;3.67;;;;;;;27.37;16.96;98609.38;5001007;28;20033;-82
2021/03/30 10:57:39;;;;;;;10.23;3.83;;;;;;;27.79;16.71;98615.47;5000840;28;20186;-82
2021/03/30 11:00:08;;;;;;;33.97;5.00;;;;;;;28.28;16.98;98604.25;5002047;28;20513;-83
2021/03/30 11:02:34;;;;;;;10.27;7.25;;;;;;;28.63;15.25;98603.69;4992209;28;20052;-84
2021/03/30 11:05:00;;;;;;;21.70;11.95;;;;;;;28.71;16.61;98584.38;5016262;28;20029;-84
2021/03/30 11:07:25;;;;;;;10.07;3.78;;;;;;;28.25;15.85;98577.94;4999941;28;20083;-82
2021/03/30 11:09:51;;;;;;;9.02;3.47;;;;;;;28.23;15.43;98596.56;4999540;28;20434;-83
2021/03/30 11:12:17;;;;;;;6.82;3.80;;;;;;;27.71;16.61;98607.25;4999725;28;20108;-83
2021/03/30 11:14:43;;;;;;;6.28;3.20;;;;;;;27.38;15.74;98578.06;5015836;28;20109;-83
2021/03/30 11:17:09;;;;;;;5.78;3.40;;;;;;;24.95;18.73;98584.72;4999653;28;20045;-83
2021/03/30 11:19:35;;;;;;;10.65;3.70;;;;;;;24.95;19.64;98578.44;4999388;28;20037;-83
2021/03/30 11:22:01;;;;;;;4.93;3.30;;;;;;;21.82;19.87;98561.84;4999388;28;20025;-84
2021/03/30 11:24:30;;;;;;;5.97;3.53;;;;;;;21.57;20.54;98574.13;4998489;28;20029;-82
2021/03/30 11:26:57;;;;;;;9.15;3.30;;;;;;;21.75;21.35;98576.19;4998990;28;20040;-80
2021/03/30 11:29:36;;;;;;;11.57;5.82;;;;;;;23.70;19.09;98579.31;5032798;28;20017;-78
2021/03/30 11:39:53;;;;;;;6.20;4.25;;;;;;;30.32;14.79;98581.78;5014509;28;20037;-79
2021/03/30 11:42:19;;;;;;;4.45;3.40;;;;;;;29.27;15.67;98565.66;5032410;28;20105;-80
2021/03/30 11:44:45;;;;;;;14.85;4.30;;;;;;;29.21;14.92;98558.97;4998351;28;20080;-80
2021/03/30 11:47:11;;;;;;;9.68;4.57;;;;;;;28.00;16.41;98546.06;5014224;28;20025;-80
2021/03/30 11:49:36;;;;;;;22.17;5.32;;;;;;;27.11;17.15;98556.50;5014784;28;20061;-80
2021/03/30 11:54:58;;;;;;;19.02;9.07;;;;;;;28.96;16.12;98549.22;5016592;28;20041;-80
2021/03/30 12:01:10;;;;;;;4.82;3.42;;;;;;;28.49;15.20;98539.25;4919925;29;20123;-80
2021/03/30 12:03:39;;;;;;;8.82;3.25;;;;;;;29.43;14.89;98521.34;4980990;28;20060;-81
2021/03/30 12:06:08;;;;;;;4.97;3.33;;;;;;;29.04;14.50;98530.69;5001524;28;20040;-85
2021/03/30 12:08:34;;;;;;;6.03;3.50;;;;;;;27.57;15.44;98514.47;4998940;28;20033;-80
2021/03/30 12:11:00;;;;;;;21.55;6.88;;;;;;;26.98;16.55;98509.50;5014033;28;20033;-76
2021/03/30 12:13:26;;;;;;;10.70;3.47;;;;;;;26.55;16.85;98508.78;4998001;28;20047;-79
2021/03/30 12:15:58;;;;;;;20.17;3.70;;;;;;;27.61;15.41;98506.72;5014006;28;20040;-81
2021/03/30 12:18:28;;;;;;;13.73;3.35;;;;;;;26.86;15.82;98517.22;5014067;28;20033;-79
2021/03/30 12:20:53;;;;;;;21.38;3.70;;;;;;;26.29;17.18;98506.25;4997410;28;20486;-80
2021/03/30 12:23:19;;;;;;;5.07;3.15;;;;;;;27.49;15.82;98502.66;5014250;28;20021;-80
2021/03/30 12:25:45;;;;;;;7.25;3.95;;;;;;;27.64;16.54;98490.75;4997392;28;20064;-79
2021/03/30 12:28:10;;;;;;;8.32;3.45;;;;;;;28.97;16.43;98495.81;5014371;28;20493;-80
2021/03/30 12:30:36;;;;;;;5.93;3.35;;;;;;;28.89;15.82;98490.38;5014197;28;20496;-80
2021/03/30 12:33:02;;;;;;;7.50;3.67;;;;;;;28.76;15.52;98495.69;4997435;28;20026;-78
2021/03/30 12:35:27;;;;;;;85.93;7.40;;;;;;;26.71;17.10;98480.47;5031574;28;20029;-79
2021/03/30 12:37:53;;;;;;;10.55;3.60;;;;;;;24.59;18.37;98470.84;5014220;28;20098;-79